sensor_id;sensor_type;location;lat;lon;timestamp;P1;durP1;ratioP1;P2;durP2;ratioP2
22916;SDS011;11624;53.250;7.456;2023-06-22T00:01:33;36.72;;;25.73;;
22916;SDS011;11624;53.250;7.456;2023-06-22T00:04:01;39.22;;;27.23;;
22916;SDS011;11624;53.250;7.456;2023-06-22T00:06:29;40.33;;;27.73;;
22916;SDS011;11624;53.250;7.456;2023-06-22T00:08:57;41.25;;;27.52;;
22916;SDS011;11624;53.250;7.456;2023-06-22T00:11:27;40.03;;;27.38;;
22916;SDS011;11624;53.250;7.456;2023-06-22T00:13:55;39.92;;;26.55;;
22916;SDS011;11624;53.250;7.456;2023-06-22T00:16:23;40.28;;;26.35;;
22916;SDS011;11624;53.250;7.456;2023-06-22T00:18:51;40.92;;;27.50;;
22916;SDS011;11624;53.250;7.456;2023-06-22T00:21:19;43.13;;;27.77;;
22916;SDS011;11624;53.250;7.456;2023-06-22T00:23:47;41.10;;;26.80;;
22916;SDS011;11624;53.250;7.456;2023-06-22T00:26:15;41.35;;;27.13;;
22916;SDS011;11624;53.250;7.456;2023-06-22T00:28:45;38.40;;;28.38;;
22916;SDS011;11624;53.250;7.456;2023-06-22T00:31:13;42.15;;;28.40;;
22916;SDS011;11624;53.250;7.456;2023-06-22T00:33:42;38.70;;;28.13;;
22916;SDS011;11624;53.250;7.456;2023-06-22T00:36:10;47.25;;;29.73;;
22916;SDS011;11624;53.250;7.456;2023-06-22T00:38:40;40.40;;;28.40;;
22916;SDS011;11624;53.250;7.456;2023-06-22T00:41:08;36.83;;;24.48;;
22916;SDS011;11624;53.250;7.456;2023-06-22T00:43:36;38.40;;;25.13;;
22916;SDS011;11624;53.250;7.456;2023-06-22T00:46:05;35.88;;;24.58;;
22916;SDS011;11624;53.250;7.456;2023-06-22T00:48:35;40.35;;;26.92;;
22916;SDS011;11624;53.250;7.456;2023-06-22T00:51:04;40.00;;;27.65;;
22916;SDS011;11624;53.250;7.456;2023-06-22T00:53:32;43.67;;;29.42;;
22916;SDS011;11624;53.250;7.456;2023-06-22T00:56:04;40.05;;;27.73;;
22916;SDS011;11624;53.250;7.456;2023-06-22T00:58:35;44.35;;;30.60;;
22916;SDS011;11624;53.250;7.456;2023-06-22T01:01:05;47.47;;;30.75;;
22916;SDS011;11624;53.250;7.456;2023-06-22T01:03:33;40.85;;;28.15;;
22916;SDS011;11624;53.250;7.456;2023-06-22T01:06:05;43.55;;;28.83;;
22916;SDS011;11624;53.250;7.456;2023-06-22T01:08:39;44.90;;;29.98;;
22916;SDS011;11624;53.250;7.456;2023-06-22T01:11:14;44.28;;;27.77;;
22916;SDS011;11624;53.250;7.456;2023-06-22T01:13:48;39.97;;;28.55;;
22916;SDS011;11624;53.250;7.456;2023-06-22T01:16:27;44.85;;;30.42;;
22916;SDS011;11624;53.250;7.456;2023-06-22T01:19:01;44.65;;;30.17;;
22916;SDS011;11624;53.250;7.456;2023-06-22T01:21:37;42.75;;;28.48;;
22916;SDS011;11624;53.250;7.456;2023-06-22T01:24:16;43.90;;;28.50;;
22916;SDS011;11624;53.250;7.456;2023-06-22T01:26:54;42.08;;;28.38;;
22916;SDS011;11624;53.250;7.456;2023-06-22T01:29:33;44.45;;;30.50;;
22916;SDS011;11624;53.250;7.456;2023-06-22T01:32:04;45.85;;;30.92;;
22916;SDS011;11624;53.250;7.456;2023-06-22T01:34:35;42.63;;;28.45;;
22916;SDS011;11624;53.250;7.456;2023-06-22T01:37:06;40.00;;;27.33;;
22916;SDS011;11624;53.250;7.456;2023-06-22T01:39:35;35.38;;;24.30;;
22916;SDS011;11624;53.250;7.456;2023-06-22T01:42:04;41.72;;;26.58;;
22916;SDS011;11624;53.250;7.456;2023-06-22T01:44:35;37.55;;;24.83;;
22916;SDS011;11624;53.250;7.456;2023-06-22T01:47:05;39.03;;;26.25;;
22916;SDS011;11624;53.250;7.456;2023-06-22T01:49:35;41.50;;;27.02;;
22916;SDS011;11624;53.250;7.456;2023-06-22T01:52:04;41.67;;;28.05;;
22916;SDS011;11624;53.250;7.456;2023-06-22T01:54:33;47.30;;;31.30;;
22916;SDS011;11624;53.250;7.456;2023-06-22T01:57:01;42.75;;;30.25;;
22916;SDS011;11624;53.250;7.456;2023-06-22T01:59:31;47.38;;;29.33;;
22916;SDS011;11624;53.250;7.456;2023-06-22T02:02:04;42.35;;;28.77;;
22916;SDS011;11624;53.250;7.456;2023-06-22T02:04:38;43.55;;;29.33;;
22916;SDS011;11624;53.250;7.456;2023-06-22T02:07:12;49.80;;;32.42;;
22916;SDS011;11624;53.250;7.456;2023-06-22T02:09:44;43.92;;;30.20;;
22916;SDS011;11624;53.250;7.456;2023-06-22T02:12:16;47.63;;;31.98;;
22916;SDS011;11624;53.250;7.456;2023-06-22T02:14:46;46.08;;;32.42;;
22916;SDS011;11624;53.250;7.456;2023-06-22T02:17:17;48.30;;;34.10;;
22916;SDS011;11624;53.250;7.456;2023-06-22T02:19:45;52.42;;;32.92;;
22916;SDS011;11624;53.250;7.456;2023-06-22T02:22:13;47.30;;;32.17;;
22916;SDS011;11624;53.250;7.456;2023-06-22T02:24:43;48.85;;;33.80;;
22916;SDS011;11624;53.250;7.456;2023-06-22T02:27:11;49.75;;;33.47;;
22916;SDS011;11624;53.250;7.456;2023-06-22T02:29:39;45.80;;;31.95;;
22916;SDS011;11624;53.250;7.456;2023-06-22T02:32:08;43.80;;;29.58;;
22916;SDS011;11624;53.250;7.456;2023-06-22T02:34:39;44.42;;;30.52;;
22916;SDS011;11624;53.250;7.456;2023-06-22T02:37:07;43.30;;;29.23;;
22916;SDS011;11624;53.250;7.456;2023-06-22T02:39:39;44.80;;;31.20;;
22916;SDS011;11624;53.250;7.456;2023-06-22T02:42:07;42.72;;;29.25;;
22916;SDS011;11624;53.250;7.456;2023-06-22T02:44:37;42.90;;;30.08;;
22916;SDS011;11624;53.250;7.456;2023-06-22T02:47:05;45.83;;;29.92;;
22916;SDS011;11624;53.250;7.456;2023-06-22T02:49:33;43.63;;;28.83;;
22916;SDS011;11624;53.250;7.456;2023-06-22T02:52:03;42.42;;;29.60;;
22916;SDS011;11624;53.250;7.456;2023-06-22T02:54:32;39.53;;;27.83;;
22916;SDS011;11624;53.250;7.456;2023-06-22T02:57:00;45.88;;;30.52;;
22916;SDS011;11624;53.250;7.456;2023-06-22T02:59:30;46.63;;;30.50;;
22916;SDS011;11624;53.250;7.456;2023-06-22T03:02:06;45.05;;;30.55;;
22916;SDS011;11624;53.250;7.456;2023-06-22T03:04:35;45.30;;;29.42;;
22916;SDS011;11624;53.250;7.456;2023-06-22T03:07:05;45.67;;;30.88;;
22916;SDS011;11624;53.250;7.456;2023-06-22T03:09:33;47.75;;;31.90;;
22916;SDS011;11624;53.250;7.456;2023-06-22T03:12:02;46.88;;;30.15;;
22916;SDS011;11624;53.250;7.456;2023-06-22T03:14:38;46.45;;;28.83;;
22916;SDS011;11624;53.250;7.456;2023-06-22T03:17:07;48.67;;;28.75;;
22916;SDS011;11624;53.250;7.456;2023-06-22T03:19:35;44.15;;;28.02;;
22916;SDS011;11624;53.250;7.456;2023-06-22T03:22:05;47.67;;;30.05;;
22916;SDS011;11624;53.250;7.456;2023-06-22T03:24:34;42.53;;;28.92;;
22916;SDS011;11624;53.250;7.456;2023-06-22T03:27:04;41.08;;;28.05;;
22916;SDS011;11624;53.250;7.456;2023-06-22T03:29:33;42.67;;;27.85;;
22916;SDS011;11624;53.250;7.456;2023-06-22T03:32:01;40.67;;;27.90;;
22916;SDS011;11624;53.250;7.456;2023-06-22T03:34:31;47.42;;;30.25;;
22916;SDS011;11624;53.250;7.456;2023-06-22T03:37:01;51.70;;;32.38;;
22916;SDS011;11624;53.250;7.456;2023-06-22T03:39:31;56.88;;;36.13;;
22916;SDS011;11624;53.250;7.456;2023-06-22T03:41:59;51.83;;;34.35;;
22916;SDS011;11624;53.250;7.456;2023-06-22T03:44:27;54.90;;;35.30;;
22916;SDS011;11624;53.250;7.456;2023-06-22T03:46:55;56.33;;;34.15;;
22916;SDS011;11624;53.250;7.456;2023-06-22T03:49:23;59.78;;;37.83;;
22916;SDS011;11624;53.250;7.456;2023-06-22T03:51:51;67.60;;;38.63;;
22916;SDS011;11624;53.250;7.456;2023-06-22T03:54:19;62.55;;;40.55;;
22916;SDS011;11624;53.250;7.456;2023-06-22T03:56:49;64.22;;;39.80;;
22916;SDS011;11624;53.250;7.456;2023-06-22T03:59:17;65.60;;;39.15;;
22916;SDS011;11624;53.250;7.456;2023-06-22T04:01:45;61.80;;;38.53;;
22916;SDS011;11624;53.250;7.456;2023-06-22T04:04:13;65.72;;;41.45;;
22916;SDS011;11624;53.250;7.456;2023-06-22T04:06:41;57.65;;;40.58;;
22916;SDS011;11624;53.250;7.456;2023-06-22T04:09:10;60.38;;;39.60;;
22916;SDS011;11624;53.250;7.456;2023-06-22T04:11:38;59.70;;;39.40;;
22916;SDS011;11624;53.250;7.456;2023-06-22T04:14:07;64.43;;;40.67;;
22916;SDS011;11624;53.250;7.456;2023-06-22T04:16:35;61.72;;;39.45;;
22916;SDS011;11624;53.250;7.456;2023-06-22T04:19:04;63.00;;;39.67;;
22916;SDS011;11624;53.250;7.456;2023-06-22T04:21:32;57.17;;;38.38;;
22916;SDS011;11624;53.250;7.456;2023-06-22T04:24:00;65.68;;;39.65;;
22916;SDS011;11624;53.250;7.456;2023-06-22T04:26:28;63.72;;;41.00;;
22916;SDS011;11624;53.250;7.456;2023-06-22T04:28:56;64.75;;;40.33;;
22916;SDS011;11624;53.250;7.456;2023-06-22T04:31:26;62.47;;;41.60;;
22916;SDS011;11624;53.250;7.456;2023-06-22T04:33:59;61.10;;;41.00;;
22916;SDS011;11624;53.250;7.456;2023-06-22T04:36:33;66.05;;;40.35;;
22916;SDS011;11624;53.250;7.456;2023-06-22T04:39:04;61.60;;;39.67;;
22916;SDS011;11624;53.250;7.456;2023-06-22T04:41:33;60.50;;;39.50;;
22916;SDS011;11624;53.250;7.456;2023-06-22T04:44:09;58.70;;;39.08;;
22916;SDS011;11624;53.250;7.456;2023-06-22T04:46:39;62.53;;;39.03;;
22916;SDS011;11624;53.250;7.456;2023-06-22T04:49:07;56.60;;;39.15;;
22916;SDS011;11624;53.250;7.456;2023-06-22T04:51:37;54.45;;;36.90;;
22916;SDS011;11624;53.250;7.456;2023-06-22T04:54:07;55.35;;;36.95;;
22916;SDS011;11624;53.250;7.456;2023-06-22T04:56:36;51.70;;;35.53;;
22916;SDS011;11624;53.250;7.456;2023-06-22T04:59:07;53.42;;;35.53;;
22916;SDS011;11624;53.250;7.456;2023-06-22T05:01:40;51.05;;;35.35;;
22916;SDS011;11624;53.250;7.456;2023-06-22T05:04:08;49.78;;;34.15;;
22916;SDS011;11624;53.250;7.456;2023-06-22T05:06:37;48.42;;;33.70;;
22916;SDS011;11624;53.250;7.456;2023-06-22T05:09:06;49.20;;;34.03;;
22916;SDS011;11624;53.250;7.456;2023-06-22T05:11:34;46.60;;;33.10;;
22916;SDS011;11624;53.250;7.456;2023-06-22T05:14:02;51.85;;;34.58;;
22916;SDS011;11624;53.250;7.456;2023-06-22T05:16:31;50.47;;;34.92;;
22916;SDS011;11624;53.250;7.456;2023-06-22T05:19:00;50.85;;;34.05;;
22916;SDS011;11624;53.250;7.456;2023-06-22T05:21:30;47.35;;;33.72;;
22916;SDS011;11624;53.250;7.456;2023-06-22T05:23:58;45.03;;;31.70;;
22916;SDS011;11624;53.250;7.456;2023-06-22T05:26:29;45.22;;;32.40;;
22916;SDS011;11624;53.250;7.456;2023-06-22T05:28:58;45.85;;;32.08;;
22916;SDS011;11624;53.250;7.456;2023-06-22T05:31:27;45.50;;;33.45;;
22916;SDS011;11624;53.250;7.456;2023-06-22T05:33:55;44.30;;;31.90;;
22916;SDS011;11624;53.250;7.456;2023-06-22T05:36:25;45.75;;;32.58;;
22916;SDS011;11624;53.250;7.456;2023-06-22T05:38:53;43.30;;;31.92;;
22916;SDS011;11624;53.250;7.456;2023-06-22T05:41:24;42.67;;;29.83;;
22916;SDS011;11624;53.250;7.456;2023-06-22T05:43:52;43.42;;;28.00;;
22916;SDS011;11624;53.250;7.456;2023-06-22T05:46:20;40.15;;;27.08;;
22916;SDS011;11624;53.250;7.456;2023-06-22T05:48:49;38.88;;;28.02;;
22916;SDS011;11624;53.250;7.456;2023-06-22T05:51:17;40.78;;;27.77;;
22916;SDS011;11624;53.250;7.456;2023-06-22T05:53:46;38.50;;;26.50;;
22916;SDS011;11624;53.250;7.456;2023-06-22T05:56:16;38.13;;;25.98;;
22916;SDS011;11624;53.250;7.456;2023-06-22T05:58:45;37.60;;;25.63;;
22916;SDS011;11624;53.250;7.456;2023-06-22T06:01:13;36.00;;;24.05;;
22916;SDS011;11624;53.250;7.456;2023-06-22T06:03:42;32.95;;;23.50;;
22916;SDS011;11624;53.250;7.456;2023-06-22T06:06:10;34.30;;;21.52;;
22916;SDS011;11624;53.250;7.456;2023-06-22T06:08:39;33.30;;;21.58;;
22916;SDS011;11624;53.250;7.456;2023-06-22T06:11:08;31.60;;;20.38;;
22916;SDS011;11624;53.250;7.456;2023-06-22T06:13:36;33.38;;;20.95;;
22916;SDS011;11624;53.250;7.456;2023-06-22T06:16:04;30.13;;;18.73;;
22916;SDS011;11624;53.250;7.456;2023-06-22T06:18:32;27.58;;;17.95;;
22916;SDS011;11624;53.250;7.456;2023-06-22T06:21:01;26.00;;;17.23;;
22916;SDS011;11624;53.250;7.456;2023-06-22T06:23:29;26.00;;;16.27;;
22916;SDS011;11624;53.250;7.456;2023-06-22T06:25:57;25.85;;;16.67;;
22916;SDS011;11624;53.250;7.456;2023-06-22T06:28:26;25.05;;;16.05;;
22916;SDS011;11624;53.250;7.456;2023-06-22T06:30:54;25.25;;;15.82;;
22916;SDS011;11624;53.250;7.456;2023-06-22T06:33:22;25.02;;;14.93;;
22916;SDS011;11624;53.250;7.456;2023-06-22T06:35:51;21.20;;;12.77;;
22916;SDS011;11624;53.250;7.456;2023-06-22T06:38:22;22.88;;;12.30;;
22916;SDS011;11624;53.250;7.456;2023-06-22T06:40:50;18.85;;;10.43;;
22916;SDS011;11624;53.250;7.456;2023-06-22T06:43:18;19.42;;;10.52;;
22916;SDS011;11624;53.250;7.456;2023-06-22T06:45:48;18.45;;;10.48;;
22916;SDS011;11624;53.250;7.456;2023-06-22T06:48:18;18.55;;;10.85;;
22916;SDS011;11624;53.250;7.456;2023-06-22T06:50:46;20.30;;;11.88;;
22916;SDS011;11624;53.250;7.456;2023-06-22T06:53:14;19.70;;;10.30;;
22916;SDS011;11624;53.250;7.456;2023-06-22T06:55:42;19.10;;;11.85;;
22916;SDS011;11624;53.250;7.456;2023-06-22T06:58:12;18.65;;;11.70;;
22916;SDS011;11624;53.250;7.456;2023-06-22T07:00:40;19.70;;;12.02;;
22916;SDS011;11624;53.250;7.456;2023-06-22T07:03:11;21.30;;;12.60;;
22916;SDS011;11624;53.250;7.456;2023-06-22T07:05:39;20.98;;;12.18;;
22916;SDS011;11624;53.250;7.456;2023-06-22T07:08:07;20.90;;;12.20;;
22916;SDS011;11624;53.250;7.456;2023-06-22T07:10:35;24.20;;;13.73;;
22916;SDS011;11624;53.250;7.456;2023-06-22T07:13:03;21.23;;;12.95;;
22916;SDS011;11624;53.250;7.456;2023-06-22T07:15:31;19.00;;;11.70;;
22916;SDS011;11624;53.250;7.456;2023-06-22T07:17:59;21.77;;;12.02;;
22916;SDS011;11624;53.250;7.456;2023-06-22T07:20:29;21.10;;;12.63;;
22916;SDS011;11624;53.250;7.456;2023-06-22T07:22:58;23.25;;;13.07;;
22916;SDS011;11624;53.250;7.456;2023-06-22T07:25:26;20.85;;;13.00;;
22916;SDS011;11624;53.250;7.456;2023-06-22T07:27:57;21.40;;;13.10;;
22916;SDS011;11624;53.250;7.456;2023-06-22T07:30:27;19.70;;;12.30;;
22916;SDS011;11624;53.250;7.456;2023-06-22T07:32:57;20.52;;;11.75;;
22916;SDS011;11624;53.250;7.456;2023-06-22T07:35:32;21.42;;;12.88;;
22916;SDS011;11624;53.250;7.456;2023-06-22T07:38:00;20.30;;;11.93;;
22916;SDS011;11624;53.250;7.456;2023-06-22T07:40:31;18.00;;;10.68;;
22916;SDS011;11624;53.250;7.456;2023-06-22T07:43:00;18.40;;;9.60;;
22916;SDS011;11624;53.250;7.456;2023-06-22T07:45:28;18.85;;;10.30;;
22916;SDS011;11624;53.250;7.456;2023-06-22T07:47:56;18.63;;;9.48;;
22916;SDS011;11624;53.250;7.456;2023-06-22T07:50:24;16.92;;;9.60;;
22916;SDS011;11624;53.250;7.456;2023-06-22T07:52:54;18.10;;;9.88;;
22916;SDS011;11624;53.250;7.456;2023-06-22T07:55:23;18.27;;;9.32;;
22916;SDS011;11624;53.250;7.456;2023-06-22T07:57:51;18.33;;;9.23;;
22916;SDS011;11624;53.250;7.456;2023-06-22T08:00:19;16.38;;;8.82;;
22916;SDS011;11624;53.250;7.456;2023-06-22T08:02:48;19.10;;;10.40;;
22916;SDS011;11624;53.250;7.456;2023-06-22T08:05:16;18.73;;;10.50;;
22916;SDS011;11624;53.250;7.456;2023-06-22T08:07:48;17.58;;;9.73;;
22916;SDS011;11624;53.250;7.456;2023-06-22T08:10:18;16.38;;;8.57;;
22916;SDS011;11624;53.250;7.456;2023-06-22T08:12:46;19.15;;;8.75;;
22916;SDS011;11624;53.250;7.456;2023-06-22T08:15:14;17.50;;;8.90;;
22916;SDS011;11624;53.250;7.456;2023-06-22T08:17:43;16.05;;;8.10;;
22916;SDS011;11624;53.250;7.456;2023-06-22T08:20:12;18.98;;;8.27;;
22916;SDS011;11624;53.250;7.456;2023-06-22T08:22:40;17.02;;;8.30;;
22916;SDS011;11624;53.250;7.456;2023-06-22T08:25:09;15.15;;;8.18;;
22916;SDS011;11624;53.250;7.456;2023-06-22T08:27:42;19.20;;;10.20;;
22916;SDS011;11624;53.250;7.456;2023-06-22T08:30:13;15.90;;;9.13;;
22916;SDS011;11624;53.250;7.456;2023-06-22T08:32:42;18.70;;;10.20;;
22916;SDS011;11624;53.250;7.456;2023-06-22T08:35:10;17.15;;;9.43;;
22916;SDS011;11624;53.250;7.456;2023-06-22T08:37:38;18.45;;;8.23;;
22916;SDS011;11624;53.250;7.456;2023-06-22T08:40:07;18.00;;;9.07;;
22916;SDS011;11624;53.250;7.456;2023-06-22T08:42:40;18.30;;;8.93;;
22916;SDS011;11624;53.250;7.456;2023-06-22T08:45:10;20.35;;;9.23;;
22916;SDS011;11624;53.250;7.456;2023-06-22T08:47:38;18.77;;;8.82;;
22916;SDS011;11624;53.250;7.456;2023-06-22T08:50:08;16.85;;;8.32;;
22916;SDS011;11624;53.250;7.456;2023-06-22T08:52:36;17.70;;;8.95;;
22916;SDS011;11624;53.250;7.456;2023-06-22T08:55:08;17.00;;;8.48;;
22916;SDS011;11624;53.250;7.456;2023-06-22T08:57:37;15.73;;;7.05;;
22916;SDS011;11624;53.250;7.456;2023-06-22T09:00:08;16.73;;;8.65;;
22916;SDS011;11624;53.250;7.456;2023-06-22T09:02:43;17.85;;;10.43;;
22916;SDS011;11624;53.250;7.456;2023-06-22T09:05:11;16.80;;;9.65;;
22916;SDS011;11624;53.250;7.456;2023-06-22T09:07:39;20.02;;;9.75;;
22916;SDS011;11624;53.250;7.456;2023-06-22T09:10:08;18.92;;;9.98;;
22916;SDS011;11624;53.250;7.456;2023-06-22T09:12:36;19.02;;;10.10;;
22916;SDS011;11624;53.250;7.456;2023-06-22T09:15:05;17.95;;;9.93;;
22916;SDS011;11624;53.250;7.456;2023-06-22T09:17:40;17.60;;;8.82;;
22916;SDS011;11624;53.250;7.456;2023-06-22T09:20:09;17.25;;;10.15;;
22916;SDS011;11624;53.250;7.456;2023-06-22T09:22:38;18.48;;;11.35;;
22916;SDS011;11624;53.250;7.456;2023-06-22T09:25:06;19.52;;;11.07;;
22916;SDS011;11624;53.250;7.456;2023-06-22T09:27:35;19.50;;;11.55;;
22916;SDS011;11624;53.250;7.456;2023-06-22T09:30:03;19.00;;;10.90;;
22916;SDS011;11624;53.250;7.456;2023-06-22T09:32:33;19.15;;;10.68;;
22916;SDS011;11624;53.250;7.456;2023-06-22T09:35:03;18.42;;;10.88;;
22916;SDS011;11624;53.250;7.456;2023-06-22T09:37:33;18.35;;;10.23;;
22916;SDS011;11624;53.250;7.456;2023-06-22T09:40:01;18.40;;;9.98;;
22916;SDS011;11624;53.250;7.456;2023-06-22T09:42:34;15.98;;;10.45;;
22916;SDS011;11624;53.250;7.456;2023-06-22T09:45:03;23.73;;;11.00;;
22916;SDS011;11624;53.250;7.456;2023-06-22T09:47:31;18.70;;;10.40;;
22916;SDS011;11624;53.250;7.456;2023-06-22T09:50:00;18.52;;;10.40;;
22916;SDS011;11624;53.250;7.456;2023-06-22T09:52:29;16.58;;;8.55;;
22916;SDS011;11624;53.250;7.456;2023-06-22T09:55:13;18.90;;;9.55;;
22916;SDS011;11624;53.250;7.456;2023-06-22T09:57:42;16.40;;;8.48;;
22916;SDS011;11624;53.250;7.456;2023-06-22T10:00:11;16.30;;;8.52;;
22916;SDS011;11624;53.250;7.456;2023-06-22T10:02:41;15.45;;;7.45;;
22916;SDS011;11624;53.250;7.456;2023-06-22T10:05:10;16.35;;;7.53;;
22916;SDS011;11624;53.250;7.456;2023-06-22T10:07:40;17.05;;;8.57;;
22916;SDS011;11624;53.250;7.456;2023-06-22T10:10:11;16.55;;;8.73;;
22916;SDS011;11624;53.250;7.456;2023-06-22T10:12:44;20.10;;;8.98;;
22916;SDS011;11624;53.250;7.456;2023-06-22T10:15:14;17.85;;;10.23;;
22916;SDS011;11624;53.250;7.456;2023-06-22T10:17:43;16.50;;;9.25;;
22916;SDS011;11624;53.250;7.456;2023-06-22T10:20:11;14.52;;;7.82;;
22916;SDS011;11624;53.250;7.456;2023-06-22T10:22:41;15.82;;;7.75;;
22916;SDS011;11624;53.250;7.456;2023-06-22T10:25:11;15.05;;;7.25;;
22916;SDS011;11624;53.250;7.456;2023-06-22T10:27:40;16.27;;;8.43;;
22916;SDS011;11624;53.250;7.456;2023-06-22T10:30:09;16.75;;;8.30;;
22916;SDS011;11624;53.250;7.456;2023-06-22T10:32:39;15.70;;;7.40;;
22916;SDS011;11624;53.250;7.456;2023-06-22T10:35:09;13.05;;;6.63;;
22916;SDS011;11624;53.250;7.456;2023-06-22T10:37:41;15.02;;;7.18;;
22916;SDS011;11624;53.250;7.456;2023-06-22T10:40:11;14.85;;;7.38;;
22916;SDS011;11624;53.250;7.456;2023-06-22T10:42:41;15.10;;;7.68;;
22916;SDS011;11624;53.250;7.456;2023-06-22T10:45:09;17.55;;;8.63;;
22916;SDS011;11624;53.250;7.456;2023-06-22T10:47:38;17.15;;;8.43;;
22916;SDS011;11624;53.250;7.456;2023-06-22T10:50:09;17.05;;;9.32;;
22916;SDS011;11624;53.250;7.456;2023-06-22T10:52:37;15.27;;;7.68;;
22916;SDS011;11624;53.250;7.456;2023-06-22T10:55:07;15.05;;;7.97;;
22916;SDS011;11624;53.250;7.456;2023-06-22T10:57:36;15.35;;;8.80;;
22916;SDS011;11624;53.250;7.456;2023-06-22T11:00:06;15.68;;;8.50;;
22916;SDS011;11624;53.250;7.456;2023-06-22T11:02:37;16.90;;;8.90;;
22916;SDS011;11624;53.250;7.456;2023-06-22T11:05:06;14.32;;;7.30;;
22916;SDS011;11624;53.250;7.456;2023-06-22T11:07:35;15.48;;;8.27;;
22916;SDS011;11624;53.250;7.456;2023-06-22T11:10:09;15.52;;;7.32;;
22916;SDS011;11624;53.250;7.456;2023-06-22T11:12:37;17.27;;;8.13;;
22916;SDS011;11624;53.250;7.456;2023-06-22T11:15:06;16.77;;;7.20;;
22916;SDS011;11624;53.250;7.456;2023-06-22T11:17:35;13.80;;;6.90;;
22916;SDS011;11624;53.250;7.456;2023-06-22T11:20:03;15.85;;;8.15;;
22916;SDS011;11624;53.250;7.456;2023-06-22T11:22:37;16.25;;;7.05;;
22916;SDS011;11624;53.250;7.456;2023-06-22T11:25:06;15.48;;;7.85;;
22916;SDS011;11624;53.250;7.456;2023-06-22T11:27:36;13.43;;;6.65;;
22916;SDS011;11624;53.250;7.456;2023-06-22T11:30:05;12.77;;;6.53;;
22916;SDS011;11624;53.250;7.456;2023-06-22T11:32:34;15.57;;;6.38;;
22916;SDS011;11624;53.250;7.456;2023-06-22T11:35:03;13.70;;;7.15;;
22916;SDS011;11624;53.250;7.456;2023-06-22T11:37:31;15.18;;;6.50;;
22916;SDS011;11624;53.250;7.456;2023-06-22T11:39:59;13.18;;;6.90;;
22916;SDS011;11624;53.250;7.456;2023-06-22T11:42:33;14.48;;;6.28;;
22916;SDS011;11624;53.250;7.456;2023-06-22T11:45:04;15.10;;;7.35;;
22916;SDS011;11624;53.250;7.456;2023-06-22T11:47:33;13.23;;;6.90;;
22916;SDS011;11624;53.250;7.456;2023-06-22T11:50:01;14.20;;;7.43;;
22916;SDS011;11624;53.250;7.456;2023-06-22T11:52:29;15.60;;;7.25;;
22916;SDS011;11624;53.250;7.456;2023-06-22T11:54:57;16.02;;;7.03;;
22916;SDS011;11624;53.250;7.456;2023-06-22T11:57:26;15.60;;;7.53;;
22916;SDS011;11624;53.250;7.456;2023-06-22T11:59:54;14.40;;;6.65;;
22916;SDS011;11624;53.250;7.456;2023-06-22T12:02:24;15.25;;;7.65;;
22916;SDS011;11624;53.250;7.456;2023-06-22T12:04:52;15.10;;;7.03;;
22916;SDS011;11624;53.250;7.456;2023-06-22T12:07:22;14.68;;;7.38;;
22916;SDS011;11624;53.250;7.456;2023-06-22T12:09:50;16.52;;;7.70;;
22916;SDS011;11624;53.250;7.456;2023-06-22T12:12:18;14.95;;;7.78;;
22916;SDS011;11624;53.250;7.456;2023-06-22T12:14:47;14.52;;;6.47;;
22916;SDS011;11624;53.250;7.456;2023-06-22T12:17:15;13.25;;;6.60;;
22916;SDS011;11624;53.250;7.456;2023-06-22T12:19:44;14.02;;;6.30;;
22916;SDS011;11624;53.250;7.456;2023-06-22T12:22:12;15.15;;;7.25;;
22916;SDS011;11624;53.250;7.456;2023-06-22T12:24:40;14.70;;;6.57;;
22916;SDS011;11624;53.250;7.456;2023-06-22T12:27:08;13.38;;;6.05;;
22916;SDS011;11624;53.250;7.456;2023-06-22T12:29:36;14.07;;;6.85;;
22916;SDS011;11624;53.250;7.456;2023-06-22T12:32:05;14.95;;;7.25;;
22916;SDS011;11624;53.250;7.456;2023-06-22T12:34:33;14.32;;;7.07;;
22916;SDS011;11624;53.250;7.456;2023-06-22T12:37:03;15.23;;;7.05;;
22916;SDS011;11624;53.250;7.456;2023-06-22T12:39:32;17.92;;;8.10;;
22916;SDS011;11624;53.250;7.456;2023-06-22T12:42:00;16.38;;;8.57;;
22916;SDS011;11624;53.250;7.456;2023-06-22T12:44:28;16.05;;;8.57;;
22916;SDS011;11624;53.250;7.456;2023-06-22T12:46:56;13.98;;;7.60;;
22916;SDS011;11624;53.250;7.456;2023-06-22T12:49:24;13.57;;;6.40;;
22916;SDS011;11624;53.250;7.456;2023-06-22T12:51:52;15.52;;;7.90;;
22916;SDS011;11624;53.250;7.456;2023-06-22T12:54:22;15.13;;;7.25;;
22916;SDS011;11624;53.250;7.456;2023-06-22T12:56:50;15.45;;;8.65;;
22916;SDS011;11624;53.250;7.456;2023-06-22T12:59:20;17.23;;;8.80;;
22916;SDS011;11624;53.250;7.456;2023-06-22T13:01:48;17.77;;;8.75;;
22916;SDS011;11624;53.250;7.456;2023-06-22T13:04:16;14.85;;;8.02;;
22916;SDS011;11624;53.250;7.456;2023-06-22T13:06:45;16.05;;;8.52;;
22916;SDS011;11624;53.250;7.456;2023-06-22T13:09:18;15.52;;;8.95;;
22916;SDS011;11624;53.250;7.456;2023-06-22T13:11:48;17.70;;;10.05;;
22916;SDS011;11624;53.250;7.456;2023-06-22T13:14:18;16.05;;;8.48;;
22916;SDS011;11624;53.250;7.456;2023-06-22T13:16:46;18.13;;;9.43;;
22916;SDS011;11624;53.250;7.456;2023-06-22T13:19:14;20.17;;;11.13;;
22916;SDS011;11624;53.250;7.456;2023-06-22T13:21:43;19.33;;;9.80;;
22916;SDS011;11624;53.250;7.456;2023-06-22T13:24:11;19.38;;;10.73;;
22916;SDS011;11624;53.250;7.456;2023-06-22T13:26:39;17.73;;;10.35;;
22916;SDS011;11624;53.250;7.456;2023-06-22T13:29:08;19.50;;;10.30;;
22916;SDS011;11624;53.250;7.456;2023-06-22T13:31:37;17.98;;;9.27;;
22916;SDS011;11624;53.250;7.456;2023-06-22T13:34:05;17.35;;;9.90;;
22916;SDS011;11624;53.250;7.456;2023-06-22T13:36:33;15.35;;;9.05;;
22916;SDS011;11624;53.250;7.456;2023-06-22T13:39:01;17.63;;;9.32;;
22916;SDS011;11624;53.250;7.456;2023-06-22T13:41:30;15.60;;;7.60;;
22916;SDS011;11624;53.250;7.456;2023-06-22T13:43:58;17.75;;;9.25;;
22916;SDS011;11624;53.250;7.456;2023-06-22T13:46:28;17.15;;;10.02;;
22916;SDS011;11624;53.250;7.456;2023-06-22T13:48:56;18.75;;;10.60;;
22916;SDS011;11624;53.250;7.456;2023-06-22T13:51:24;17.52;;;10.02;;
22916;SDS011;11624;53.250;7.456;2023-06-22T13:53:52;17.70;;;10.07;;
22916;SDS011;11624;53.250;7.456;2023-06-22T13:56:20;19.90;;;9.13;;
22916;SDS011;11624;53.250;7.456;2023-06-22T13:58:49;15.48;;;7.85;;
22916;SDS011;11624;53.250;7.456;2023-06-22T14:01:17;15.07;;;7.70;;
22916;SDS011;11624;53.250;7.456;2023-06-22T14:03:47;16.20;;;8.02;;
22916;SDS011;11624;53.250;7.456;2023-06-22T14:06:16;15.30;;;8.23;;
22916;SDS011;11624;53.250;7.456;2023-06-22T14:08:44;14.98;;;7.82;;
22916;SDS011;11624;53.250;7.456;2023-06-22T14:11:12;14.68;;;7.80;;
22916;SDS011;11624;53.250;7.456;2023-06-22T14:13:40;14.55;;;7.18;;
22916;SDS011;11624;53.250;7.456;2023-06-22T14:16:09;14.50;;;7.18;;
22916;SDS011;11624;53.250;7.456;2023-06-22T14:18:37;17.38;;;7.63;;
22916;SDS011;11624;53.250;7.456;2023-06-22T14:21:07;15.25;;;7.47;;
22916;SDS011;11624;53.250;7.456;2023-06-22T14:23:35;12.48;;;6.32;;
22916;SDS011;11624;53.250;7.456;2023-06-22T14:26:03;16.35;;;7.68;;
22916;SDS011;11624;53.250;7.456;2023-06-22T14:28:32;16.90;;;6.25;;
22916;SDS011;11624;53.250;7.456;2023-06-22T14:31:00;14.45;;;7.10;;
22916;SDS011;11624;53.250;7.456;2023-06-22T14:33:28;13.40;;;6.65;;
22916;SDS011;11624;53.250;7.456;2023-06-22T14:35:56;14.35;;;6.57;;
22916;SDS011;11624;53.250;7.456;2023-06-22T14:38:25;14.88;;;6.40;;